Terminal Aerodrome Forecast
Issued by NWS North Platte, NE

Home | Current Version | Previous Version | Graphics & Text | Print | Product List | Glossary On
Versions: 1 2 3 4 5 6 7 8 9 10 11 12 13 14 15 16 17
000
FTUS43 KLBF 262320
TAFVTN
TAF
KVTN 262320Z 2700/2724 14012KT P6SM SCT200
     FM270800 14009KT P6SM BKN200
     FM272000 03012KT P6SM SCT100 BKN200
      TEMPO 2721/2724 5SM -TSRA BKN080CB=

USA.gov is the U.S. government's official web portal to all federal, state and local government web resources and services.